Архив погоды на Мысе Ванкерем

Метеограмма Мыс Ванкерем
Среда, 15 Августа
Время местн. Темп Ветер Видим Явления Облачность нижн/средн/верх Атм. давл. Влжн Точка росы ВНГО R Сост. почвы Tg s
Напр Скр Прв ур.ст ур.м изм
03:00 +3.7° С,С-З 6 9 20 км - преимущественно облачно 768 768 +0.2 83% +1.1° 300 м - - - -
00:00 +3.5° С 7 14 10 км небо без изменений {морось} облачно 768 768 +0.4 85% +1.2° 300 м - - - -
Вторник, 14 Августа
Время местн. Темп Ветер Видим Явления Облачность нижн/средн/верх Атм. давл. Влжн Точка росы ВНГО R Сост. почвы Tg s
Напр Скр Прв ур.ст ур.м изм
21:00 +4° С 9 16 10 км небо без изменений {морось} облачно 767 768 +0.4 88% +2.2° 300 м - - - -
18:00 +3.8° С 11 17 4 км слабая непрерывная морось облачно 767 767 +0.8 90% +2.3° 300 м 0.3 - - -
15:00 +4° С 13 18 10 км - облачно 766 767 +1 88% +2.2° 300 м - - - -
12:00 +4.2° С 12 18 10 км небо без изменений {морось} облачно 765 766 +1.3 89% +2.5° 300 м - - - -
09:00 +4.9° С 10 16 10 км - облачно 764 764 +0.5 89% +3.2° 300 м - - - -
06:00 +4.2° С 13 17 10 км - облачно 763 764 +0.9 89% +2.5° 300 м 0 Влажная (без луж) - -
03:00 +4° С 12 17 10 км - облачно 762 763 +0.8 88% +2.2° 300 м - - - -
00:00 +4.5° С 13 18 10 км - облачно 762 762 +0.8 89% +2.8° 300 м - - - -
Понедельник, 13 Августа
Время местн. Темп Ветер Видим Явления Облачность нижн/средн/верх Атм. давл. Влжн Точка росы ВНГО R Сост. почвы Tg s
Напр Скр Прв ур.ст ур.м изм
21:00 +4.9° С 12 17 10 км - облачно 761 761 +0.6 89% +3.2° 300 м - - - -
18:00 +5.4° С 12 17 10 км небо без изменений {морось} облачно 760 761 +0.2 88% +3.5° 300 м 0.3 - - -
15:00 +6.2° С 10 16 4 км слабая непрерывная морось облачно 760 761 +0.3 95% +5.5° 300 м - - - -
12:00 +5.8° С 10 15 4 км слабая непрерывная морось облачно 760 760 +0.3 97% +5.3° 300 м - - - -
09:00 +5.7° С 9 12 10 км - облачно 759 760 -0.4 86% +3.6° 300 м - - - -
06:00 +3.7° С 7 10 10 км - облачно 760 760 +0.3 88% +1.9° 300 м 0 Влажная (без луж) - -
03:00 +4° С 5 7 10 км - облачно 760 760 +0.1 87% +2° 300 м - - - -
00:00 +4.4° С,С-В 3 6 10 км небо без изменений {туман} облачно 759 760 +0.1 89% +2.7° 300 м - - - -
Воскресенье, 12 Августа
Время местн. Темп Ветер Видим Явления Облачность нижн/средн/верх Атм. давл. Влжн Точка росы ВНГО R Сост. почвы Tg s
Напр Скр Прв ур.ст ур.м изм
21:00 +4.7° С-В 2 5 500 м туман неба не видно 759 760 0 100% +4.7° - - - - -
18:00 +6.4° С-В 2 5 200 м туман неба не видно 759 760 -0.5 100% +6.4° - 0 - - -
15:00 +6.5° С-В 2 5 200 м туман неба не видно 760 760 -1.2 100% +6.5° - - - - -
12:00 +6.2° С,С-В 2 8 200 м туман неба не видно 761 762 -1.1 100% +6.2° - - - - -
09:00 +3.3° С,С-З 7 10 10 км - облачно 762 763 +0.2 86% +1.2° 1 км - - - -
06:00 +3.1° С 8 10 10 км - облачно 762 762 +0.2 86% +1° 1 км 0 Влажная (без луж) - -
03:00 +2.9° С 8 11 10 км - облачно 762 762 +0.3 88% +1.1° 1 км - - - -
00:00 +2.5° С,С-З 8 11 10 км - облачно 762 762 +0.2 87% +0.6° 1 км - - - -